»·PEaware :: N5337S KLGB-KONT

N5337S :: KLGB-KONT

FLIGHT INFORMATION

Flight Status: Arrived
Operator: Privately registered:
United States
More flights under this callsign
Pilot: Eric I. (28401)
Aircraft: PIPER PA-28 CHEROKEE ARCHER
(P28A)
More flights by this aircraft type
Origin: KLGB Long Beach
United States
Destination: KONT Ontario Intl
United States
More flights between these airports :: More routes between these airports
Route: +SLI V8 PDZ
File this flight plan on PilotEdge
Remarks: TEC ROUTE CSTP13
Altitude:
(Current/Filed)
5,000ft
Speed:
(Current/Filed)
110kts
Departed: 30-Jun-20 07:33 PM
Arrived: 30-Jun-20 08:11 PM
Distance/Time
Traveled:
30nm/0:38
Distance/Time
To Go:
Arrived

Flight Plot

Page will automatically refresh every two minutes.


Map Options




Map Legend


Flown Route
Filed Route
Departure Airport
Arrival Airport
Navaid (VOR, NDB)
Fix

Horizontal Profiles

Position Reports

Time Latitude Longitude Heading Altitude Ground
Speed
30-Jun-20 19:14 33.812113 -118.150869 90 63ft 0kts
30-Jun-20 19:15 33.812113 -118.150869 90 63ft 0kts
30-Jun-20 19:16 33.812113 -118.150869 90 63ft 0kts
30-Jun-20 19:17 33.812113 -118.150869 90 63ft 0kts
30-Jun-20 19:18 33.812113 -118.150869 90 63ft 0kts
30-Jun-20 19:19 33.812113 -118.150869 90 63ft 0kts
30-Jun-20 19:20 33.812113 -118.150869 90 63ft 0kts
30-Jun-20 19:21 33.812113 -118.150869 90 63ft 0kts
30-Jun-20 19:22 33.812113 -118.150869 90 63ft 0kts
30-Jun-20 19:23 33.812513 -118.150716 358 63ft 7kts
30-Jun-20 19:24 33.812830 -118.150742 350 63ft 0kts
30-Jun-20 19:25 33.812868 -118.150755 341 63ft 1kts
30-Jun-20 19:26 33.813089 -118.149342 87 63ft 4kts
30-Jun-20 19:27 33.813127 -118.147740 44 63ft 3kts
30-Jun-20 19:28 33.813357 -118.147914 325 63ft 0kts
30-Jun-20 19:29 33.813357 -118.147914 325 63ft 0kts
30-Jun-20 19:30 33.813357 -118.147914 325 63ft 0kts
30-Jun-20 19:31 33.813821 -118.148829 270 63ft 13kts
30-Jun-20 19:32 33.816985 -118.173036 278 760ft 86kts
30-Jun-20 19:33 33.801307 -118.189399 203 1716ft 83kts
30-Jun-20 19:34 33.780668 -118.203434 210 2592ft 85kts
30-Jun-20 19:35 33.757372 -118.211288 166 3377ft 97kts
30-Jun-20 19:36 33.757371 -118.178744 76 4141ft 110kts
30-Jun-20 19:37 33.767675 -118.142507 74 4818ft 117kts
30-Jun-20 19:38 33.775608 -118.102386 83 5023ft 126kts
30-Jun-20 19:39 33.781815 -118.061248 79 5038ft 125kts
30-Jun-20 19:40 33.788985 -118.020484 69 5052ft 124kts
30-Jun-20 19:41 33.801668 -117.981920 70 5058ft 125kts
30-Jun-20 19:42 33.811875 -117.941703 75 5073ft 125kts
30-Jun-20 19:43 33.823091 -117.902118 68 5076ft 125kts
30-Jun-20 19:44 33.833259 -117.861844 74 5008ft 125kts
30-Jun-20 19:45 33.843082 -117.821700 70 5030ft 125kts
30-Jun-20 19:46 33.852091 -117.781181 75 5046ft 125kts
30-Jun-20 19:47 33.863027 -117.741160 72 5070ft 128kts
30-Jun-20 19:48 33.872153 -117.700945 74 5345ft 125kts
30-Jun-20 19:49 33.882550 -117.660488 70 5395ft 126kts
30-Jun-20 19:50 33.892533 -117.620103 77 5369ft 126kts
30-Jun-20 19:51 33.904778 -117.580459 72 5333ft 126kts
30-Jun-20 19:52 33.914754 -117.540043 70 5347ft 126kts
30-Jun-20 19:53 33.918201 -117.498643 94 5359ft 123kts
30-Jun-20 19:54 33.918862 -117.457014 92 5320ft 124kts
30-Jun-20 19:55 33.920764 -117.415387 87 5321ft 124kts
30-Jun-20 19:56 33.921579 -117.373778 89 5333ft 124kts
30-Jun-20 19:57 33.933587 -117.339182 358 5173ft 121kts
30-Jun-20 19:58 33.963283 -117.339623 341 4853ft 100kts
30-Jun-20 19:59 33.992101 -117.339864 354 4766ft 100kts
30-Jun-20 20:00 34.020500 -117.341856 353 4810ft 102kts
30-Jun-20 20:01 34.048918 -117.344418 335 4851ft 97kts
30-Jun-20 20:02 34.060114 -117.370459 259 4586ft 85kts
30-Jun-20 20:03 34.057469 -117.400108 261 4139ft 89kts
30-Jun-20 20:04 34.054933 -117.429576 265 3560ft 89kts
30-Jun-20 20:05 34.054876 -117.459098 270 3035ft 87kts
30-Jun-20 20:06 34.054718 -117.488223 266 2522ft 86kts
30-Jun-20 20:07 34.054927 -117.517186 263 2053ft 85kts
30-Jun-20 20:08 34.054958 -117.545879 263 1592ft 85kts
30-Jun-20 20:09 34.054930 -117.572256 265 1213ft 68kts
30-Jun-20 20:10 34.054933 -117.590117 271 946ft 17kts
30-Jun-20 20:11 34.054369 -117.593956 230 946ft 7kts
30-Jun-20 20:12 34.054103 -117.594348 232 946ft 0kts
30-Jun-20 20:13 34.053834 -117.596098 268 946ft 12kts
30-Jun-20 20:14 34.053832 -117.600246 268 946ft 12kts
30-Jun-20 20:15 34.053838 -117.605258 271 946ft 14kts
30-Jun-20 20:16 34.053837 -117.609388 268 946ft 9kts
30-Jun-20 20:17 34.053081 -117.609934 264 946ft 0kts

Navigation Log

Ident Type
Flight plan parsing failed, navigation log unavailable